Time;durP1;ratioP1;P1;durP2;ratioP2;P2;SDS_P1;SDS_P2;PMS_P1;PMS_P2;Temp;Humidity;BMP_temperature;BMP_pressure;BME280_temperature;BME280_humidity;BME280_pressure;Samples;Min_cycle;Max_cycle;Signal;HPM_P1;HPM_P2
2023/08/03 00:00:16;;;;;;;4.03;1.40;;;15.70;99.90;;;;;;5035659;28;20045;-63
2023/08/03 00:02:42;;;;;;;3.72;1.20;;;15.70;99.90;;;;;;5034334;28;20141;-63
2023/08/03 00:05:08;;;;;;;1.55;0.93;;;15.70;99.90;;;;;;5035277;28;20049;-63
2023/08/03 00:07:33;;;;;;;2.40;0.98;;;15.70;99.90;;;;;;5035537;28;20116;-63
2023/08/03 00:09:59;;;;;;;2.17;1.10;;;15.70;99.90;;;;;;5035306;28;20473;-63
2023/08/03 00:12:25;;;;;;;1.95;1.05;;;15.70;99.90;;;;;;5035474;28;20501;-64
2023/08/03 00:14:51;;;;;;;3.70;1.33;;;15.70;99.90;;;;;;5035115;28;20104;-64
2023/08/03 00:17:17;;;;;;;3.42;1.55;;;15.70;99.90;;;;;;5035357;28;20466;-64
2023/08/03 00:19:43;;;;;;;3.42;1.40;;;15.70;99.90;;;;;;5035364;28;20044;-64
2023/08/03 00:22:09;;;;;;;2.80;1.25;;;15.70;99.90;;;;;;5034984;28;20481;-64
2023/08/03 00:24:35;;;;;;;5.30;1.27;;;15.80;99.90;;;;;;5035266;28;20038;-63
2023/08/03 00:27:01;;;;;;;2.03;1.10;;;15.80;99.90;;;;;;5035211;28;20045;-63
2023/08/03 00:29:26;;;;;;;2.30;1.05;;;15.70;99.90;;;;;;5034859;28;20073;-63
2023/08/03 00:31:52;;;;;;;3.67;1.10;;;15.80;99.90;;;;;;5035119;28;20091;-63
2023/08/03 00:34:17;;;;;;;3.50;1.27;;;15.80;99.90;;;;;;5035037;28;20072;-63
2023/08/03 00:36:43;;;;;;;2.78;1.02;;;15.80;99.90;;;;;;5034812;28;20049;-60
2023/08/03 00:39:09;;;;;;;3.63;0.93;;;15.80;99.90;;;;;;5035023;28;20036;-59
2023/08/03 00:41:34;;;;;;;4.25;1.10;;;15.80;99.90;;;;;;5034824;28;20046;-59
2023/08/03 00:44:00;;;;;;;4.72;1.40;;;15.80;99.90;;;;;;5034921;28;20033;-59
2023/08/03 00:46:26;;;;;;;4.45;1.45;;;15.80;99.90;;;;;;5034748;28;20044;-59
2023/08/03 00:48:51;;;;;;;5.97;1.65;;;15.80;99.90;;;;;;5034760;28;20029;-59
2023/08/03 00:51:17;;;;;;;5.25;1.20;;;15.50;99.90;;;;;;5034721;28;20057;-63
2023/08/03 00:53:46;;;;;;;2.88;1.05;;;15.80;99.90;;;;;;5034664;28;20092;-60
2023/08/03 00:56:16;;;;;;;3.67;1.33;;;15.80;99.90;;;;;;5034631;28;20042;-59
2023/08/03 00:58:42;;;;;;;3.35;1.15;;;15.80;99.90;;;;;;5034650;28;20545;-58
2023/08/03 01:01:07;;;;;;;3.35;0.90;;;15.60;99.90;;;;;;5034502;28;20129;-59
2023/08/03 01:03:33;;;;;;;4.68;1.13;;;15.80;99.90;;;;;;5034220;28;20473;-59
2023/08/03 01:05:59;;;;;;;3.75;1.25;;;15.80;99.90;;;;;;5032817;28;20049;-59
2023/08/03 01:08:25;;;;;;;3.55;0.85;;;15.80;99.90;;;;;;5034388;28;20041;-62
2023/08/03 01:10:51;;;;;;;6.53;1.45;;;15.80;99.90;;;;;;5034375;28;20401;-64
2023/08/03 01:13:18;;;;;;;2.63;0.90;;;15.80;99.90;;;;;;5033873;28;20045;-63
2023/08/03 01:15:44;;;;;;;2.15;1.10;;;15.80;99.90;;;;;;5034223;28;20041;-62
2023/08/03 01:18:09;;;;;;;1.77;0.75;;;15.80;99.90;;;;;;5033976;28;20458;-63
2023/08/03 01:20:37;;;;;;;1.42;0.93;;;15.80;99.90;;;;;;5034361;28;20393;-63
2023/08/03 01:23:08;;;;;;;4.03;1.00;;;15.50;99.90;;;;;;5034196;28;20041;-62
2023/08/03 01:25:35;;;;;;;1.98;0.90;;;15.80;99.90;;;;;;5034147;28;20092;-62
2023/08/03 01:28:04;;;;;;;2.80;0.93;;;15.80;99.90;;;;;;5034055;28;20090;-63
2023/08/03 01:30:30;;;;;;;3.60;1.15;;;15.80;99.90;;;;;;5033744;28;20507;-63
2023/08/03 01:32:56;;;;;;;3.33;0.90;;;15.70;99.90;;;;;;5033990;28;20037;-62
2023/08/03 01:35:22;;;;;;;2.15;0.77;;;15.80;99.90;;;;;;5033886;28;20127;-63
2023/08/03 01:37:49;;;;;;;2.13;0.70;;;16.10;99.90;;;;;;5033884;28;20091;-62
2023/08/03 01:40:16;;;;;;;2.17;0.82;;;15.70;99.90;;;;;;5033825;28;20116;-63
2023/08/03 01:42:41;;;;;;;1.63;0.60;;;15.70;99.90;;;;;;5033467;28;20172;-62
2023/08/03 01:45:07;;;;;;;1.60;0.70;;;15.70;99.90;;;;;;5033779;28;20080;-63
2023/08/03 01:47:33;;;;;;;1.00;0.50;;;15.70;99.90;;;;;;5033686;28;20040;-62
2023/08/03 01:49:59;;;;;;;2.50;0.90;;;15.70;99.90;;;;;;5033673;28;20061;-59
2023/08/03 01:52:25;;;;;;;1.20;0.60;;;15.70;99.90;;;;;;5048969;28;20099;-59
2023/08/03 01:54:50;;;;;;;1.10;0.45;;;15.70;99.90;;;;;;5033585;28;20041;-59
2023/08/03 01:57:17;;;;;;;2.22;0.70;;;15.60;99.90;;;;;;5032000;28;20053;-59
2023/08/03 01:59:43;;;;;;;0.75;0.43;;;15.70;99.90;;;;;;5033540;28;20404;-61
2023/08/03 02:02:09;;;;;;;0.82;0.47;;;15.70;99.90;;;;;;5033394;28;20054;-58
2023/08/03 02:04:35;;;;;;;0.50;0.50;;;15.70;99.90;;;;;;5032986;28;20053;-59
2023/08/03 02:07:42;;;;;;;2.13;0.70;;;15.70;99.90;;;;;;5033089;28;20045;-58
2023/08/03 02:10:08;;;;;;;0.95;0.60;;;15.70;99.90;;;;;;5016510;28;20493;-59
2023/08/03 02:12:34;;;;;;;2.22;0.70;;;15.70;99.90;;;;;;5033306;28;20033;-59
2023/08/03 02:14:59;;;;;;;1.27;0.50;;;16.00;99.90;;;;;;5033263;28;20064;-58
2023/08/03 02:17:27;;;;;;;1.73;0.38;;;15.70;99.90;;;;;;5033211;28;20120;-59
2023/08/03 02:19:53;;;;;;;1.40;0.75;;;16.00;99.90;;;;;;5033069;28;20042;-59
2023/08/03 02:22:18;;;;;;;3.05;0.60;;;15.70;99.90;;;;;;5033125;28;20124;-60
2023/08/03 02:24:44;;;;;;;1.35;0.75;;;15.90;99.90;;;;;;5032450;28;20469;-58
2023/08/03 02:27:09;;;;;;;0.50;0.40;;;15.70;99.90;;;;;;5033067;28;20038;-58
2023/08/03 02:29:35;;;;;;;1.30;0.60;;;16.40;99.90;;;;;;5033016;28;20037;-59
2023/08/03 02:32:00;;;;;;;4.78;0.82;;;15.70;99.90;;;;;;5033039;28;20114;-59
2023/08/03 02:34:26;;;;;;;1.45;0.85;;;15.70;99.90;;;;;;5032979;28;20045;-59
2023/08/03 02:36:52;;;;;;;2.78;1.00;;;15.70;99.90;;;;;;5032946;28;20045;-59
2023/08/03 02:39:17;;;;;;;0.85;0.52;;;15.70;99.90;;;;;;5032698;28;20477;-58
2023/08/03 02:41:43;;;;;;;0.82;0.55;;;16.00;99.90;;;;;;5032860;28;20389;-58
2023/08/03 02:44:08;;;;;;;1.13;0.65;;;16.40;99.90;;;;;;5032873;28;20042;-59
2023/08/03 02:46:34;;;;;;;1.63;0.95;;;15.70;99.90;;;;;;5032554;28;20066;-59
2023/08/03 02:49:00;;;;;;;2.38;1.00;;;15.70;99.90;;;;;;5032869;28;20033;-58
2023/08/03 02:51:26;;;;;;;2.25;0.80;;;15.70;99.90;;;;;;5032895;28;20112;-58
2023/08/03 02:53:51;;;;;;;3.03;0.93;;;15.70;99.90;;;;;;5032774;28;20076;-58
2023/08/03 02:56:17;;;;;;;1.35;0.85;;;15.70;99.90;;;;;;5032771;28;20053;-59
2023/08/03 02:58:42;;;;;;;1.85;1.00;;;15.70;99.90;;;;;;5032677;28;21010;-62
2023/08/03 03:01:08;;;;;;;3.17;0.80;;;15.70;99.90;;;;;;5032656;28;20041;-62
2023/08/03 03:03:33;;;;;;;2.25;1.00;;;15.60;99.90;;;;;;5032688;28;20488;-62
2023/08/03 03:05:59;;;;;;;3.50;1.30;;;15.70;99.90;;;;;;5032289;28;20154;-61
2023/08/03 03:08:24;;;;;;;2.03;1.20;;;15.70;99.90;;;;;;5032675;28;20037;-62
2023/08/03 03:10:50;;;;;;;1.48;0.90;;;15.70;99.90;;;;;;5032738;28;20068;-62
2023/08/03 03:13:16;;;;;;;1.70;0.80;;;15.80;99.90;;;;;;5032656;28;20038;-62
2023/08/03 03:15:41;;;;;;;1.92;0.93;;;15.80;99.90;;;;;;5032738;28;20171;-62
2023/08/03 03:18:07;;;;;;;2.08;0.88;;;15.80;99.90;;;;;;5032299;28;20042;-62
2023/08/03 03:20:32;;;;;;;3.45;1.23;;;15.70;99.90;;;;;;5032615;28;20477;-62
2023/08/03 03:22:58;;;;;;;2.35;0.90;;;15.70;99.90;;;;;;5032235;28;20089;-62
2023/08/03 03:25:23;;;;;;;1.90;0.98;;;15.80;99.90;;;;;;5032552;28;20033;-62
2023/08/03 03:27:49;;;;;;;2.65;1.10;;;15.90;99.90;;;;;;5032550;28;20518;-62
2023/08/03 03:30:16;;;;;;;1.92;1.10;;;15.80;99.90;;;;;;5032649;28;20033;-70
2023/08/03 03:32:43;;;;;;;4.10;1.60;;;16.20;99.90;;;;;;5032627;28;20409;-71
2023/08/03 03:35:09;;;;;;;2.13;1.45;;;15.90;99.90;;;;;;5032636;28;20385;-70
2023/08/03 03:37:34;;;;;;;3.72;1.98;;;16.50;99.90;;;;;;5035577;28;20087;-72
2023/08/03 03:40:00;;;;;;;3.35;1.52;;;15.80;99.90;;;;;;5035770;28;20041;-70
2023/08/03 03:42:26;;;;;;;4.93;1.90;;;15.80;99.90;;;;;;5035925;28;20041;-71
2023/08/03 03:44:51;;;;;;;3.85;2.10;;;15.90;99.90;;;;;;5035712;28;20037;-70
2023/08/03 03:47:17;;;;;;;3.03;2.17;;;15.90;99.90;;;;;;5034725;28;20044;-72
2023/08/03 03:49:42;;;;;;;3.40;2.35;;;15.90;99.90;;;;;;5035993;28;20112;-70
2023/08/03 03:52:08;;;;;;;4.72;2.83;;;15.90;99.90;;;;;;5035873;28;20053;-72
2023/08/03 03:54:34;;;;;;;5.32;2.85;;;15.90;99.90;;;;;;5035535;28;20042;-70
2023/08/03 03:57:00;;;;;;;5.63;2.60;;;16.00;99.90;;;;;;5035536;28;20039;-70
2023/08/03 03:59:26;;;;;;;11.13;3.00;;;16.00;99.90;;;;;;5034494;28;20045;-70
2023/08/03 04:01:52;;;;;;;5.30;3.38;;;16.00;99.90;;;;;;5035644;28;20473;-70
2023/08/03 04:04:17;;;;;;;7.65;3.22;;;16.00;99.90;;;;;;5035122;28;20111;-70
2023/08/03 04:06:43;;;;;;;7.63;3.20;;;15.90;99.90;;;;;;5035590;28;20037;-71
2023/08/03 04:09:09;;;;;;;14.10;3.55;;;16.00;99.90;;;;;;5035651;28;20034;-62
2023/08/03 04:11:35;;;;;;;5.50;3.25;;;16.50;99.90;;;;;;5035590;28;20473;-63
2023/08/03 04:14:00;;;;;;;4.60;3.20;;;15.80;99.90;;;;;;5035453;28;20076;-63
2023/08/03 04:16:26;;;;;;;5.30;3.20;;;15.80;99.90;;;;;;5035420;28;20045;-62
2023/08/03 04:18:51;;;;;;;4.70;3.13;;;15.90;99.90;;;;;;5035392;28;20067;-62
2023/08/03 04:21:17;;;;;;;9.75;3.60;;;15.80;99.90;;;;;;5034905;28;20461;-62
2023/08/03 04:23:43;;;;;;;7.18;3.72;;;15.80;99.90;;;;;;5035295;28;20042;-63
2023/08/03 04:26:08;;;;;;;6.85;3.08;;;15.90;99.90;;;;;;5035253;28;20470;-62
2023/08/03 04:28:34;;;;;;;6.30;3.08;;;16.00;99.90;;;;;;5034984;28;20056;-63
2023/08/03 04:31:00;;;;;;;4.68;2.95;;;15.80;99.90;;;;;;5035225;28;20045;-63
2023/08/03 04:33:25;;;;;;;8.70;3.28;;;15.90;99.90;;;;;;5033559;28;20051;-62
2023/08/03 04:35:51;;;;;;;6.20;2.80;;;15.90;99.90;;;;;;5034813;28;20049;-62
2023/08/03 04:38:16;;;;;;;7.07;3.15;;;15.90;99.90;;;;;;5035018;28;20499;-62
2023/08/03 04:40:42;;;;;;;7.93;3.00;;;15.90;99.90;;;;;;5035052;28;20103;-62
2023/08/03 04:43:08;;;;;;;6.00;2.80;;;16.20;99.90;;;;;;5034940;28;20034;-63
2023/08/03 04:45:34;;;;;;;6.28;2.70;;;15.90;99.90;;;;;;5034879;28;20495;-63
2023/08/03 04:48:00;;;;;;;8.27;2.83;;;16.00;99.90;;;;;;5033733;28;20037;-62
2023/08/03 04:50:26;;;;;;;7.38;3.00;;;15.90;99.90;;;;;;5034673;28;20120;-63
2023/08/03 04:52:51;;;;;;;7.60;3.15;;;15.80;99.90;;;;;;5034661;28;20081;-62
2023/08/03 04:55:17;;;;;;;6.95;2.95;;;16.00;99.90;;;;;;5034570;28;20511;-62
2023/08/03 04:57:42;;;;;;;7.90;2.80;;;15.90;99.90;;;;;;5034365;28;20041;-62
2023/08/03 05:00:09;;;;;;;12.10;3.05;;;15.90;99.90;;;;;;5034542;28;20041;-62
2023/08/03 05:02:34;;;;;;;6.38;2.90;;;16.00;99.90;;;;;;5034411;28;20033;-63
2023/08/03 05:05:00;;;;;;;8.88;3.08;;;16.00;99.90;;;;;;5034094;28;20061;-62
2023/08/03 05:07:27;;;;;;;8.65;2.90;;;16.40;99.90;;;;;;5034421;28;20418;-62
2023/08/03 05:09:53;;;;;;;5.82;2.47;;;15.90;99.90;;;;;;5034061;28;20037;-62
2023/08/03 05:12:19;;;;;;;6.13;2.13;;;16.00;99.90;;;;;;5034268;28;20044;-62
2023/08/03 05:14:44;;;;;;;12.50;2.45;;;15.90;99.90;;;;;;5034009;28;20038;-62
2023/08/03 05:17:10;;;;;;;5.03;2.00;;;16.00;99.90;;;;;;5034155;28;20033;-62
2023/08/03 05:19:35;;;;;;;5.78;2.03;;;16.20;99.90;;;;;;5034254;28;20099;-71
2023/08/03 05:22:01;;;;;;;7.78;2.10;;;16.00;99.90;;;;;;5034101;28;20042;-72
2023/08/03 05:24:27;;;;;;;13.48;2.15;;;16.10;99.90;;;;;;5034013;28;20519;-70
2023/08/03 05:26:52;;;;;;;6.22;2.30;;;16.10;99.90;;;;;;5034113;28;20166;-70
2023/08/03 05:29:18;;;;;;;6.30;1.90;;;16.10;99.90;;;;;;5034049;28;20064;-70
2023/08/03 05:31:48;;;;;;;9.82;2.20;;;16.50;99.90;;;;;;5032482;28;20042;-73
2023/08/03 05:34:14;;;;;;;6.45;1.95;;;16.20;99.90;;;;;;5033961;28;20409;-70
2023/08/03 05:36:40;;;;;;;8.52;2.40;;;16.20;99.90;;;;;;5033974;28;20049;-72
2023/08/03 05:39:08;;;;;;;8.38;2.38;;;16.20;99.90;;;;;;5033836;28;20049;-73
2023/08/03 05:41:34;;;;;;;8.57;1.83;;;16.50;99.90;;;;;;5033473;28;20371;-71
2023/08/03 05:44:00;;;;;;;10.25;2.38;;;16.30;99.90;;;;;;5033441;28;20091;-73
2023/08/03 05:46:30;;;;;;;4.95;2.00;;;16.10;99.90;;;;;;5033753;28;20112;-71
2023/08/03 05:48:56;;;;;;;9.00;2.47;;;16.30;99.90;;;;;;5033762;28;20033;-72
2023/08/03 05:51:26;;;;;;;5.35;2.20;;;16.20;99.90;;;;;;5032205;28;20284;-58
2023/08/03 05:53:52;;;;;;;5.43;2.05;;;16.30;99.90;;;;;;5033677;28;20045;-58
2023/08/03 05:56:21;;;;;;;5.63;2.05;;;16.10;99.90;;;;;;5032085;28;20049;-59
2023/08/03 05:58:48;;;;;;;4.50;1.75;;;16.30;99.90;;;;;;5032294;28;20095;-60
2023/08/03 06:01:19;;;;;;;4.10;1.75;;;16.30;99.90;;;;;;5031933;28;20056;-59
2023/08/03 06:03:45;;;;;;;6.20;2.25;;;16.80;99.90;;;;;;5033311;28;20103;-63
2023/08/03 06:06:13;;;;;;;5.60;1.70;;;16.20;99.90;;;;;;5033432;28;20033;-63
2023/08/03 06:08:50;;;;;;;10.77;2.28;;;16.40;99.90;;;;;;5033109;28;20045;-63
2023/08/03 06:11:18;;;;;;;5.20;2.15;;;16.40;99.90;;;;;;5047648;28;20052;-63
2023/08/03 06:13:44;;;;;;;7.03;2.10;;;16.20;99.90;;;;;;5033003;28;20033;-62
2023/08/03 06:16:12;;;;;;;7.97;1.92;;;16.60;99.90;;;;;;5032004;28;20048;-65
2023/08/03 06:18:49;;;;;;;4.20;2.25;;;16.60;99.90;;;;;;5032938;28;20056;-63
2023/08/03 06:21:16;;;;;;;9.85;2.28;;;16.60;99.90;;;;;;5032795;28;20037;-63
2023/08/03 06:23:46;;;;;;;4.95;1.63;;;16.60;99.90;;;;;;5032837;28;20108;-63
2023/08/03 06:26:14;;;;;;;5.78;2.00;;;16.70;99.90;;;;;;5033058;28;20082;-63
2023/08/03 06:28:40;;;;;;;5.45;2.00;;;16.70;99.90;;;;;;5032832;28;20081;-64
2023/08/03 06:31:39;;;;;;;4.60;1.88;;;16.70;99.90;;;;;;5033051;28;20068;-63
2023/08/03 06:34:05;;;;;;;3.95;2.10;;;16.70;99.90;;;;;;5030891;28;20456;-63
2023/08/03 06:36:31;;;;;;;3.80;1.95;;;16.70;99.90;;;;;;5031447;28;20053;-63
2023/08/03 06:38:58;;;;;;;6.75;2.42;;;16.60;99.90;;;;;;5032647;28;20045;-63
2023/08/03 06:41:25;;;;;;;4.22;1.73;;;16.70;99.90;;;;;;5032908;28;20038;-63
2023/08/03 06:43:52;;;;;;;5.13;2.20;;;17.00;99.90;;;;;;5032643;28;20040;-63
2023/08/03 06:46:18;;;;;;;12.23;2.33;;;16.80;99.90;;;;;;5032915;28;20037;-63
2023/08/03 06:48:43;;;;;;;7.40;2.15;;;16.60;99.90;;;;;;5032678;28;20040;-63
2023/08/03 06:51:09;;;;;;;4.88;2.03;;;16.90;99.90;;;;;;5032952;28;20034;-64
2023/08/03 06:53:35;;;;;;;4.90;1.92;;;17.20;99.90;;;;;;5032986;28;20124;-64
2023/08/03 06:56:00;;;;;;;5.30;2.17;;;16.90;99.90;;;;;;5032994;28;20041;-64
2023/08/03 06:58:26;;;;;;;8.00;1.90;;;16.90;99.90;;;;;;5032882;28;20037;-63
2023/08/03 07:00:52;;;;;;;4.45;1.60;;;16.90;99.90;;;;;;5032643;28;20042;-71
2023/08/03 07:03:18;;;;;;;5.10;1.70;;;17.00;99.90;;;;;;5032801;28;20397;-71
2023/08/03 07:05:44;;;;;;;5.70;1.85;;;16.60;99.90;;;;;;5032442;28;20053;-71
2023/08/03 07:08:10;;;;;;;3.15;1.52;;;17.10;99.90;;;;;;5032804;28;20370;-72
2023/08/03 07:10:36;;;;;;;4.72;1.92;;;17.20;99.90;;;;;;5033477;28;20076;-70
2023/08/03 07:13:03;;;;;;;6.22;1.88;;;17.80;99.90;;;;;;5036273;28;20041;-71
2023/08/03 07:15:34;;;;;;;2.20;1.60;;;17.20;99.90;;;;;;5036239;28;20045;-70
2023/08/03 07:18:04;;;;;;;2.50;1.38;;;17.20;99.90;;;;;;5036531;28;20083;-72
2023/08/03 07:20:30;;;;;;;5.18;1.75;;;17.40;99.90;;;;;;5036573;28;20124;-71
2023/08/03 07:22:55;;;;;;;4.43;1.38;;;17.40;99.90;;;;;;5036396;28;20120;-71
2023/08/03 07:25:21;;;;;;;3.33;1.65;;;17.40;99.90;;;;;;5036082;28;20450;-71
2023/08/03 07:27:47;;;;;;;2.63;1.35;;;17.50;99.90;;;;;;5036323;28;20041;-72
2023/08/03 07:30:12;;;;;;;2.47;1.60;;;17.90;99.90;;;;;;5036305;28;20033;-72
2023/08/03 07:32:38;;;;;;;5.55;1.55;;;17.70;99.90;;;;;;5036268;28;20091;-72
2023/08/03 07:35:04;;;;;;;2.35;1.20;;;18.10;99.90;;;;;;5035007;28;20541;-72
2023/08/03 07:37:29;;;;;;;2.85;1.00;;;18.00;99.90;;;;;;5036143;28;20033;-71
2023/08/03 07:39:55;;;;;;;1.65;0.85;;;18.10;99.90;;;;;;5035921;28;20044;-71
2023/08/03 07:42:20;;;;;;;3.53;1.10;;;18.10;99.90;;;;;;5035985;28;20037;-71
2023/08/03 07:44:46;;;;;;;2.72;1.00;;;18.30;99.90;;;;;;5035989;28;20045;-70
2023/08/03 07:47:12;;;;;;;3.70;1.08;;;18.40;99.90;;;;;;5035987;28;20095;-70
2023/08/03 07:49:37;;;;;;;1.55;1.02;;;18.60;99.90;;;;;;5035766;28;20500;-73
2023/08/03 07:52:03;;;;;;;1.70;0.90;;;18.60;99.90;;;;;;5035950;28;20397;-71
2023/08/03 07:54:30;;;;;;;2.65;1.10;;;18.40;99.90;;;;;;5035872;28;20044;-71
2023/08/03 07:56:56;;;;;;;3.10;1.15;;;18.30;99.90;;;;;;5035819;28;20116;-71
2023/08/03 07:59:21;;;;;;;3.28;1.15;;;18.40;99.90;;;;;;5035769;28;20068;-71
2023/08/03 08:01:47;;;;;;;1.50;0.70;;;19.00;99.90;;;;;;5035621;28;20041;-71
2023/08/03 08:04:14;;;;;;;2.33;1.10;;;19.00;99.90;;;;;;5035257;28;20057;-71
2023/08/03 08:06:40;;;;;;;3.08;1.00;;;18.60;99.90;;;;;;5035302;28;20049;-70
2023/08/03 08:09:06;;;;;;;2.05;1.02;;;18.60;99.90;;;;;;5035554;28;20033;-70
2023/08/03 08:11:31;;;;;;;2.95;0.90;;;18.60;99.90;;;;;;5035567;28;20425;-63
2023/08/03 08:13:59;;;;;;;1.95;0.90;;;18.50;99.90;;;;;;5035526;28;20041;-63
2023/08/03 08:16:25;;;;;;;2.05;0.88;;;18.60;99.90;;;;;;5035520;28;20548;-63
2023/08/03 08:18:50;;;;;;;3.80;0.88;;;18.50;99.90;;;;;;5035419;28;20195;-63
2023/08/03 08:21:16;;;;;;;1.63;0.80;;;18.90;99.90;;;;;;5035313;28;20486;-63
2023/08/03 08:23:42;;;;;;;2.65;1.00;;;19.00;99.90;;;;;;5034132;28;20041;-64
2023/08/03 08:26:15;;;;;;;1.55;0.70;;;19.00;99.90;;;;;;5035281;28;20041;-63
2023/08/03 08:28:42;;;;;;;3.00;0.82;;;19.30;99.90;;;;;;5035209;28;20060;-63
2023/08/03 08:31:08;;;;;;;2.25;1.00;;;19.40;99.90;;;;;;5035333;28;20041;-62
2023/08/03 08:33:34;;;;;;;3.17;0.90;;;19.30;99.90;;;;;;5034854;28;20043;-61
2023/08/03 08:35:59;;;;;;;2.28;0.90;;;18.80;99.90;;;;;;5034784;28;20172;-61
2023/08/03 08:38:25;;;;;;;2.90;0.85;;;19.30;99.90;;;;;;5035026;28;20056;-61
2023/08/03 08:40:51;;;;;;;4.60;0.98;;;19.30;99.90;;;;;;5034912;28;20045;-61
2023/08/03 08:43:20;;;;;;;3.60;1.33;;;19.20;99.90;;;;;;5034968;28;20041;-62
2023/08/03 08:45:46;;;;;;;0.98;0.60;;;19.40;99.90;;;;;;5034955;28;20042;-64
2023/08/03 08:48:12;;;;;;;1.40;0.70;;;19.40;99.90;;;;;;5034911;28;20116;-62
2023/08/03 08:50:38;;;;;;;2.58;0.70;;;19.40;99.90;;;;;;5034510;28;20041;-64
2023/08/03 08:53:04;;;;;;;1.77;0.50;;;19.70;99.90;;;;;;5034767;28;20063;-61
2023/08/03 08:55:30;;;;;;;3.00;1.00;;;19.50;99.90;;;;;;5033501;28;20041;-62
2023/08/03 08:57:57;;;;;;;1.80;0.70;;;19.90;99.90;;;;;;5034754;28;20400;-61
2023/08/03 09:00:27;;;;;;;1.15;0.80;;;19.90;99.90;;;;;;5034683;28;20045;-60
2023/08/03 09:02:56;;;;;;;2.42;0.73;;;20.10;99.90;;;;;;5034605;28;20033;-61
2023/08/03 09:05:24;;;;;;;1.17;0.50;;;20.30;99.90;;;;;;5034234;28;20425;-61
2023/08/03 09:08:07;;;;;;;1.48;0.63;;;20.20;99.90;;;;;;5034166;28;20095;-61
2023/08/03 09:10:55;;;;;;;1.17;0.60;;;19.90;99.90;;;;;;5034443;28;20045;-62
2023/08/03 09:13:31;;;;;;;1.30;0.80;;;19.90;99.90;;;;;;5034230;28;20107;-58
2023/08/03 09:15:58;;;;;;;1.38;0.43;;;20.10;99.90;;;;;;5034383;28;20073;-58
2023/08/03 09:18:27;;;;;;;2.97;0.95;;;20.20;99.90;;;;;;5016321;28;20029;-58
2023/08/03 09:21:12;;;;;;;1.20;0.80;;;20.20;99.90;;;;;;5034155;28;20124;-58
2023/08/03 09:23:38;;;;;;;2.15;0.80;;;20.10;99.90;;;;;;5034251;28;20497;-58
2023/08/03 09:26:04;;;;;;;1.70;0.77;;;20.30;99.90;;;;;;5034164;28;20068;-58
2023/08/03 09:28:43;;;;;;;0.75;0.65;;;21.00;99.90;;;;;;5034027;28;20037;-58
2023/08/03 09:31:10;;;;;;;4.68;0.95;;;20.20;99.90;;;;;;5034149;28;20041;-58
2023/08/03 09:33:36;;;;;;;2.90;0.80;;;20.30;99.90;;;;;;5033718;28;20118;-62
2023/08/03 09:36:02;;;;;;;3.63;1.05;;;20.40;99.90;;;;;;5033736;28;20041;-59
2023/08/03 09:38:28;;;;;;;1.25;0.68;;;20.50;99.90;;;;;;5033834;28;20112;-59
2023/08/03 09:40:54;;;;;;;3.00;1.15;;;20.70;99.90;;;;;;5033746;28;20041;-59
2023/08/03 09:43:22;;;;;;;2.20;0.93;;;20.80;99.90;;;;;;5033756;28;20025;-59
2023/08/03 09:45:48;;;;;;;4.97;1.00;;;20.70;99.90;;;;;;5033767;28;20041;-58
2023/08/03 09:48:14;;;;;;;2.95;0.90;;;20.80;99.90;;;;;;5033637;28;20037;-59
2023/08/03 09:50:42;;;;;;;3.25;1.02;;;21.10;99.90;;;;;;5033666;28;20115;-59
2023/08/03 09:53:14;;;;;;;3.15;0.90;;;21.00;99.90;;;;;;5032020;28;20049;-59
2023/08/03 09:55:46;;;;;;;1.02;0.80;;;20.90;99.90;;;;;;5033582;28;20532;-58
2023/08/03 09:58:15;;;;;;;2.60;1.13;;;20.90;99.90;;;;;;5033323;28;20037;-59
2023/08/03 10:00:44;;;;;;;1.50;0.80;;;21.40;99.90;;;;;;5033231;28;20044;-60
2023/08/03 10:03:13;;;;;;;4.32;0.85;;;20.90;99.90;;;;;;5033476;28;20083;-59
2023/08/03 10:05:58;;;;;;;3.47;0.75;;;20.80;99.90;;;;;;5033040;28;20454;-60
2023/08/03 10:08:31;;;;;;;2.08;0.70;;;20.70;99.90;;;;;;5033447;28;20072;-60
2023/08/03 10:11:03;;;;;;;2.40;0.70;;;20.80;99.90;;;;;;5033438;28;20073;-59
2023/08/03 10:13:33;;;;;;;1.77;0.93;;;20.70;99.90;;;;;;5032934;28;20037;-60
2023/08/03 10:16:02;;;;;;;1.85;0.80;;;20.80;99.90;;;;;;5033205;28;20033;-60
2023/08/03 10:18:30;;;;;;;1.85;1.02;;;21.00;99.90;;;;;;5033298;28;20042;-61
2023/08/03 10:20:57;;;;;;;1.77;0.80;;;21.30;99.90;;;;;;5033201;28;20093;-60
2023/08/03 10:23:23;;;;;;;4.30;0.82;;;21.50;99.90;;;;;;5033355;28;20038;-73
2023/08/03 10:25:58;;;;;;;2.05;0.90;;;21.40;99.90;;;;;;5033157;28;20524;-73
2023/08/03 10:28:48;;;;;;;3.17;0.73;;;21.20;96.40;;;;;;5033115;28;20079;-72
2023/08/03 10:31:15;;;;;;;4.13;1.35;;;20.90;99.90;;;;;;5032492;28;20085;-72
2023/08/03 10:33:46;;;;;;;2.55;0.63;;;20.70;99.90;;;;;;5032809;28;20120;-71
2023/08/03 10:36:27;;;;;;;6.82;0.90;;;20.70;99.90;;;;;;5032764;28;20104;-71
2023/08/03 10:38:58;;;;;;;2.10;0.82;;;20.80;99.90;;;;;;5033077;28;20045;-71
2023/08/03 10:41:28;;;;;;;;;;;20.90;99.90;;;;;;5033406;28;20041;-73
2023/08/03 10:44:05;;;;;;;4.30;1.10;;;21.00;97.10;;;;;;5033176;28;20015;-62
2023/08/03 10:46:41;;;;;;;2.35;0.90;;;21.00;99.90;;;;;;5035069;28;20042;-62
2023/08/03 10:49:27;;;;;;;6.72;1.52;;;21.00;99.90;;;;;;5036881;28;20049;-62
2023/08/03 10:52:21;;;;;;;2.42;1.00;;;20.90;99.90;;;;;;5037081;28;20386;-62
2023/08/03 10:54:47;;;;;;;3.42;0.98;;;20.80;99.90;;;;;;5036799;28;20045;-62
2023/08/03 10:57:24;;;;;;;3.17;1.13;;;20.70;99.90;;;;;;5036958;28;20073;-60
2023/08/03 10:59:53;;;;;;;3.40;1.45;;;20.70;99.90;;;;;;5035670;28;20103;-60
2023/08/03 11:02:33;;;;;;;4.20;1.10;;;20.80;99.90;;;;;;5036732;28;20416;-60
2023/08/03 11:05:01;;;;;;;2.20;0.80;;;21.00;99.90;;;;;;5036524;28;20061;-60
2023/08/03 11:07:27;;;;;;;2.63;1.08;;;21.10;99.90;;;;;;5036522;28;20048;-60
2023/08/03 11:09:53;;;;;;;2.72;1.00;;;21.20;99.90;;;;;;5036473;28;20525;-60
2023/08/03 11:12:22;;;;;;;1.40;0.80;;;21.30;99.90;;;;;;5036535;28;20037;-61
2023/08/03 11:14:52;;;;;;;5.13;1.30;;;21.30;99.90;;;;;;5036291;28;20489;-68
2023/08/03 11:17:27;;;;;;;3.13;1.13;;;21.00;97.40;;;;;;5036510;28;20038;-60
2023/08/03 11:19:54;;;;;;;4.07;1.15;;;21.20;95.40;;;;;;5036190;28;20041;-60
2023/08/03 11:22:21;;;;;;;3.45;1.30;;;21.20;98.10;;;;;;5036248;28;20401;-60
2023/08/03 11:24:57;;;;;;;4.78;1.50;;;21.40;96.50;;;;;;5036387;28;20045;-60
2023/08/03 11:27:23;;;;;;;3.40;0.93;;;21.50;94.40;;;;;;5035998;28;20041;-60
2023/08/03 11:29:56;;;;;;;3.83;1.17;;;21.90;94.20;;;;;;5035006;28;20094;-60
2023/08/03 11:32:26;;;;;;;5.30;1.38;;;22.00;93.50;;;;;;5036180;28;20112;-60
2023/08/03 11:35:03;;;;;;;1.83;1.00;;;21.90;92.30;;;;;;5035837;28;20045;-58
2023/08/03 11:37:33;;;;;;;3.05;0.93;;;22.10;87.20;;;;;;5035876;28;20050;-57
2023/08/03 11:40:00;;;;;;;1.73;0.95;;;22.20;77.40;;;;;;5036087;28;20038;-58
2023/08/03 11:42:27;;;;;;;5.35;1.17;;;22.10;83.30;;;;;;5035915;28;20045;-57
2023/08/03 11:44:53;;;;;;;5.53;1.30;;;22.00;90.90;;;;;;5034698;28;20135;-57
2023/08/03 11:47:18;;;;;;;3.17;1.13;;;22.00;89.40;;;;;;5034653;28;20100;-58
2023/08/03 11:49:47;;;;;;;4.35;0.95;;;22.10;92.20;;;;;;5035920;28;20529;-57
2023/08/03 11:52:19;;;;;;;1.30;0.88;;;22.00;85.70;;;;;;5035771;28;20064;-58
2023/08/03 11:54:45;;;;;;;2.95;0.95;;;22.10;79.70;;;;;;5034383;28;20515;-69
2023/08/03 11:59:55;;;;;;;4.20;0.98;;;22.00;86.80;;;;;;5035734;28;20045;-69
2023/08/03 12:02:44;;;;;;;4.32;1.27;;;22.10;91.80;;;;;;5034140;28;20048;-71
2023/08/03 12:05:11;;;;;;;4.05;0.90;;;22.20;86.30;;;;;;5035402;28;20057;-69
2023/08/03 12:07:36;;;;;;;1.55;0.73;;;22.20;80.00;;;;;;5035330;28;20045;-68
2023/08/03 12:10:14;;;;;;;1.90;0.70;;;22.10;82.80;;;;;;5035644;28;20033;-69
2023/08/03 12:12:42;;;;;;;1.48;0.68;;;22.40;74.00;;;;;;5034403;28;20116;-71
2023/08/03 12:15:09;;;;;;;1.65;1.08;;;21.90;79.00;;;;;;5035265;28;20053;-70
2023/08/03 12:17:35;;;;;;;1.50;0.82;;;21.70;77.30;;;;;;5035457;28;20057;-69
2023/08/03 12:20:01;;;;;;;2.05;0.60;;;21.80;85.60;;;;;;5035480;28;20493;-69
2023/08/03 12:22:26;;;;;;;3.30;0.82;;;21.60;90.30;;;;;;5034985;28;20092;-70
2023/08/03 12:24:52;;;;;;;5.00;0.70;;;21.50;91.60;;;;;;5035355;28;20038;-69
2023/08/03 12:27:17;;;;;;;3.85;1.17;;;21.60;92.20;;;;;;5035273;28;20038;-71
2023/08/03 12:29:43;;;;;;;2.17;0.98;;;21.70;91.90;;;;;;5035246;28;20037;-70
2023/08/03 12:32:09;;;;;;;2.22;0.80;;;21.70;85.80;;;;;;5035212;28;20041;-70
2023/08/03 12:34:35;;;;;;;3.95;0.85;;;21.80;90.40;;;;;;5034912;28;20095;-70
2023/08/03 12:37:00;;;;;;;4.15;0.70;;;22.00;93.10;;;;;;5035144;28;20041;-71
2023/08/03 12:39:26;;;;;;;4.13;1.13;;;21.90;91.70;;;;;;5035143;28;20511;-71
2023/08/03 12:41:51;;;;;;;1.80;0.65;;;21.80;91.00;;;;;;5033409;28;20049;-70
2023/08/03 12:44:17;;;;;;;3.63;1.13;;;21.70;92.00;;;;;;5035116;28;20049;-70
2023/08/03 12:46:42;;;;;;;3.13;0.90;;;21.70;93.80;;;;;;5034615;28;20504;-70
2023/08/03 12:49:08;;;;;;;1.90;0.77;;;21.90;74.50;;;;;;5016933;28;20441;-70
2023/08/03 12:51:36;;;;;;;2.42;0.60;;;22.00;90.40;;;;;;5034871;28;20045;-70